createdAt,value
2018-09-14T00:00:39.960Z,18.24
2018-09-14T00:03:08.610Z,18.54
2018-09-14T00:05:37.014Z,17.99
2018-09-14T00:08:05.774Z,18.13
2018-09-14T00:10:34.491Z,18.25
2018-09-14T00:13:03.162Z,18.00
2018-09-14T00:15:31.607Z,17.81
2018-09-14T00:18:00.296Z,18.30
2018-09-14T00:20:28.734Z,17.98
2018-09-14T00:22:57.231Z,17.68
2018-09-14T00:25:25.779Z,17.78
2018-09-14T00:27:54.186Z,18.10
2018-09-14T00:30:22.690Z,18.14
2018-09-14T00:32:51.171Z,18.32
2018-09-14T00:35:19.654Z,18.13
2018-09-14T00:37:48.085Z,18.26
2018-09-14T00:40:16.838Z,18.04
2018-09-14T00:42:45.378Z,17.95
2018-09-14T00:45:13.838Z,18.09
2018-09-14T00:47:42.274Z,17.82
2018-09-14T00:50:10.679Z,17.84
2018-09-14T00:52:39.155Z,17.93
2018-09-14T00:55:07.743Z,17.99
2018-09-14T00:57:36.210Z,17.88
2018-09-14T01:00:05.073Z,18.02
2018-09-14T01:02:33.559Z,17.67
2018-09-14T01:05:01.992Z,17.87
2018-09-14T01:07:30.550Z,17.93
2018-09-14T01:09:59.011Z,17.74
2018-09-14T01:12:27.446Z,17.67
2018-09-14T01:14:55.962Z,17.89
2018-09-14T01:17:24.579Z,17.62
2018-09-14T01:19:53.354Z,17.85
2018-09-14T01:22:21.882Z,17.87
2018-09-14T01:24:50.450Z,17.81
2018-09-14T01:27:18.939Z,17.80
2018-09-14T01:29:47.357Z,17.71
2018-09-14T01:32:16.015Z,17.61
2018-09-14T01:34:44.786Z,17.86
2018-09-14T01:37:13.203Z,17.59
2018-09-14T01:39:41.678Z,18.00
2018-09-14T01:42:10.168Z,17.90
2018-09-14T01:44:38.634Z,17.54
2018-09-14T01:47:07.311Z,17.57
2018-09-14T01:49:35.835Z,17.86
2018-09-14T01:52:04.291Z,17.68
2018-09-14T01:54:33.036Z,17.42
2018-09-14T01:57:01.507Z,17.53
2018-09-14T01:59:29.987Z,17.40
2018-09-14T02:01:58.762Z,17.55
2018-09-14T02:04:27.195Z,17.34
2018-09-14T02:06:55.674Z,17.52
2018-09-14T02:09:24.566Z,17.75
2018-09-14T02:11:53.021Z,17.57
2018-09-14T02:14:21.446Z,17.73
2018-09-14T02:16:49.882Z,17.45
2018-09-14T02:19:18.298Z,17.39
2018-09-14T02:21:46.748Z,17.65
2018-09-14T02:24:15.314Z,17.49
2018-09-14T02:26:43.838Z,17.45
2018-09-14T02:29:12.335Z,17.89
2018-09-14T02:31:40.794Z,17.34
2018-09-14T02:34:09.244Z,17.50
2018-09-14T02:36:37.739Z,17.51
2018-09-14T02:39:07.891Z,17.50
2018-09-14T02:41:36.347Z,17.59
2018-09-14T02:44:04.858Z,17.41
2018-09-14T02:46:33.559Z,17.85
2018-09-14T02:49:02.032Z,17.36
2018-09-14T02:51:30.531Z,17.53
2018-09-14T02:53:59.019Z,17.46
2018-09-14T02:56:27.467Z,17.29
2018-09-14T02:58:55.864Z,17.47
2018-09-14T03:01:24.472Z,17.17
2018-09-14T03:03:52.893Z,17.28
2018-09-14T03:06:21.408Z,17.14
2018-09-14T03:08:50.273Z,17.09
2018-09-14T03:11:18.774Z,17.21
2018-09-14T03:13:47.302Z,17.52
2018-09-14T03:16:16.100Z,17.69
2018-09-14T03:18:44.811Z,17.28
2018-09-14T03:21:13.274Z,17.18
2018-09-14T03:23:42.442Z,17.07
2018-09-14T03:26:11.001Z,17.42
2018-09-14T03:28:39.419Z,17.22
2018-09-14T03:31:08.140Z,17.35
2018-09-14T03:33:36.589Z,17.21
2018-09-14T03:36:05.187Z,16.92
2018-09-14T03:38:33.719Z,17.37
2018-09-14T03:41:02.179Z,17.65
2018-09-14T03:43:30.610Z,17.44
2018-09-14T03:45:59.258Z,17.27
2018-09-14T03:48:27.670Z,17.22
2018-09-14T03:50:56.051Z,16.93
2018-09-14T03:53:24.552Z,16.98
2018-09-14T03:55:53.222Z,17.00
2018-09-14T03:58:21.651Z,17.13
2018-09-14T04:00:50.173Z,17.31
2018-09-14T04:03:18.595Z,17.13
2018-09-14T04:05:47.187Z,17.12
2018-09-14T04:08:15.759Z,17.22
2018-09-14T04:10:44.196Z,17.04
2018-09-14T04:13:12.647Z,17.05
2018-09-14T04:15:41.120Z,17.04
2018-09-14T04:18:09.539Z,17.20
2018-09-14T04:20:38.043Z,17.16
2018-09-14T04:23:06.715Z,17.13
2018-09-14T04:25:35.278Z,17.16
2018-09-14T04:28:03.758Z,17.02
2018-09-14T04:30:32.560Z,17.19
2018-09-14T04:33:01.071Z,17.29
2018-09-14T04:35:29.550Z,17.05
2018-09-14T04:37:58.249Z,17.14
2018-09-14T04:40:26.733Z,17.22
2018-09-14T04:42:55.275Z,17.20
2018-09-14T04:45:24.019Z,16.96
2018-09-14T04:47:52.516Z,17.07
2018-09-14T04:50:20.963Z,16.98
2018-09-14T04:52:49.555Z,16.95
2018-09-14T04:55:17.968Z,16.95
2018-09-14T04:57:46.671Z,16.88
2018-09-14T05:00:15.210Z,17.01
2018-09-14T05:02:43.631Z,16.93
2018-09-14T05:05:12.175Z,16.89
2018-09-14T05:07:40.702Z,16.72
2018-09-14T05:10:09.195Z,16.85
2018-09-14T05:12:37.647Z,16.85
2018-09-14T05:15:06.411Z,16.93
2018-09-14T05:17:35.126Z,16.92
2018-09-14T05:20:03.659Z,16.99
2018-09-14T05:22:32.181Z,17.02
2018-09-14T05:25:00.735Z,16.99
2018-09-14T05:27:29.132Z,16.97
2018-09-14T05:29:57.647Z,17.04
2018-09-14T05:32:26.122Z,17.14
2018-09-14T05:34:54.630Z,17.03
2018-09-14T05:37:23.374Z,17.05
2018-09-14T05:39:51.903Z,17.08
2018-09-14T05:42:20.424Z,17.10
2018-09-14T05:44:49.055Z,17.06
2018-09-14T05:47:17.594Z,17.12
2018-09-14T05:49:46.046Z,17.21
2018-09-14T05:52:14.683Z,17.20
2018-09-14T05:54:43.084Z,17.11
2018-09-14T05:57:11.553Z,17.07
2018-09-14T05:59:40.102Z,17.02
2018-09-14T06:02:08.555Z,17.02
2018-09-14T06:04:37.063Z,16.99
2018-09-14T06:07:05.613Z,16.91
2018-09-14T06:09:34.201Z,16.99
2018-09-14T06:12:02.647Z,16.92
2018-09-14T06:14:31.335Z,16.87
2018-09-14T06:16:59.857Z,16.64
2018-09-14T06:19:28.348Z,16.57
2018-09-14T06:21:56.950Z,16.79
2018-09-14T06:24:25.411Z,16.85
2018-09-14T06:26:53.923Z,16.95
2018-09-14T06:29:22.451Z,17.05
2018-09-14T06:31:51.025Z,17.18
2018-09-14T06:34:19.479Z,17.27
2018-09-14T06:36:48.162Z,17.31
2018-09-14T06:39:16.679Z,17.38
2018-09-14T06:41:45.179Z,17.35
2018-09-14T06:44:13.639Z,17.63
2018-09-14T06:46:42.178Z,17.35
2018-09-14T06:49:10.651Z,17.65
2018-09-14T06:51:39.831Z,17.72
2018-09-14T06:54:08.922Z,17.74
2018-09-14T06:56:37.403Z,17.93
2018-09-14T06:59:06.344Z,18.13
2018-09-14T07:01:35.007Z,18.39
2018-09-14T07:04:03.480Z,18.22
2018-09-14T07:06:32.146Z,18.42
2018-09-14T07:09:01.587Z,18.44
2018-09-14T07:11:30.059Z,18.39
2018-09-14T07:13:58.603Z,18.05
2018-09-14T07:16:27.187Z,18.11
2018-09-14T07:18:55.758Z,18.15
2018-09-14T07:21:24.418Z,18.27
2018-09-14T07:23:52.846Z,18.38
2018-09-14T07:26:21.275Z,18.65
2018-09-14T07:28:50.213Z,18.86
2018-09-14T07:31:19.110Z,18.81
2018-09-14T07:33:47.666Z,18.42
2018-09-14T07:36:16.215Z,18.59
2018-09-14T07:38:44.764Z,18.69
2018-09-14T07:41:13.232Z,18.55
2018-09-14T07:43:41.833Z,18.64
2018-09-14T07:46:10.314Z,18.80
2018-09-14T07:48:38.814Z,18.88
2018-09-14T07:51:07.555Z,19.14
2018-09-14T07:53:36.027Z,19.27
2018-09-14T07:56:04.482Z,19.35
2018-09-14T07:58:33.051Z,19.28
2018-09-14T08:01:01.811Z,19.00
2018-09-14T08:03:30.423Z,18.74
2018-09-14T08:05:59.199Z,18.78
2018-09-14T08:08:27.711Z,18.80
2018-09-14T08:10:56.159Z,18.90
2018-09-14T08:13:24.937Z,18.94
2018-09-14T08:15:53.503Z,19.00
2018-09-14T08:18:22.143Z,19.39
2018-09-14T08:20:50.841Z,19.45
2018-09-14T08:23:19.412Z,19.41
2018-09-14T08:25:47.827Z,19.83
2018-09-14T08:28:16.268Z,19.77
2018-09-14T08:30:44.783Z,19.57
2018-09-14T08:33:13.242Z,19.54
2018-09-14T08:35:41.910Z,19.53
2018-09-14T08:38:10.419Z,19.66
2018-09-14T08:40:38.871Z,19.70
2018-09-14T08:43:07.440Z,20.03
2018-09-14T08:45:35.941Z,20.20
2018-09-14T08:48:04.606Z,19.69
2018-09-14T08:50:32.926Z,19.91
2018-09-14T08:53:01.395Z,19.81
2018-09-14T08:55:29.877Z,19.75
2018-09-14T08:57:58.487Z,19.63
2018-09-14T09:00:27.007Z,19.52
2018-09-14T09:02:55.822Z,20.04
2018-09-14T09:05:25.390Z,19.70
2018-09-14T09:07:53.926Z,20.10
2018-09-14T09:10:22.394Z,19.75
2018-09-14T09:12:51.051Z,19.97
2018-09-14T09:15:19.600Z,19.60
2018-09-14T09:17:48.264Z,20.13
2018-09-14T09:20:16.691Z,20.44
2018-09-14T09:22:45.186Z,20.47
2018-09-14T09:25:13.688Z,20.56
2018-09-14T09:27:43.095Z,20.67
2018-09-14T09:30:11.776Z,20.60
2018-09-14T09:32:40.286Z,20.72
2018-09-14T09:35:08.984Z,21.03
2018-09-14T09:37:37.490Z,20.59
2018-09-14T09:40:06.026Z,21.19
2018-09-14T09:42:35.033Z,20.70
2018-09-14T09:45:03.619Z,21.27
2018-09-14T09:47:32.147Z,21.32
2018-09-14T09:50:00.702Z,20.54
2018-09-14T09:52:29.207Z,20.70
2018-09-14T09:54:57.722Z,21.51
2018-09-14T09:57:26.251Z,21.35
2018-09-14T09:59:54.734Z,21.87
2018-09-14T10:02:28.867Z,21.94
2018-09-14T10:05:02.542Z,22.17
2018-09-14T10:07:31.005Z,21.50
2018-09-14T10:09:59.496Z,21.88
2018-09-14T10:12:27.967Z,21.76
2018-09-14T10:14:56.676Z,22.31
2018-09-14T10:17:25.037Z,21.99
2018-09-14T10:19:53.814Z,22.31
2018-09-14T10:22:22.255Z,21.98
2018-09-14T10:24:50.722Z,22.67
2018-09-14T10:27:19.202Z,22.21
2018-09-14T10:29:47.729Z,22.61
2018-09-14T10:32:16.190Z,22.24
2018-09-14T10:34:44.643Z,22.50
2018-09-14T10:37:13.267Z,22.43
2018-09-14T10:39:41.789Z,22.25
2018-09-14T10:42:10.335Z,22.32
2018-09-14T10:44:38.767Z,22.05
2018-09-14T10:47:07.311Z,22.43
2018-09-14T10:49:35.771Z,22.47
2018-09-14T10:52:04.290Z,22.47
2018-09-14T10:54:33.162Z,22.59
2018-09-14T10:57:01.663Z,22.73
2018-09-14T10:59:30.183Z,22.84
2018-09-14T11:01:58.638Z,22.71
2018-09-14T11:04:27.205Z,22.96
2018-09-14T11:06:55.873Z,23.01
2018-09-14T11:09:24.244Z,22.76
2018-09-14T11:11:52.748Z,22.42
2018-09-14T11:14:21.378Z,22.61
2018-09-14T11:16:49.814Z,22.74
2018-09-14T11:19:18.312Z,22.61
2018-09-14T11:21:46.815Z,22.00
2018-09-14T11:24:15.270Z,22.35
2018-09-14T11:26:43.927Z,22.63
2018-09-14T11:29:12.392Z,22.48
2018-09-14T11:31:40.846Z,22.43
2018-09-14T11:34:09.367Z,22.80
2018-09-14T11:36:37.877Z,22.58
2018-09-14T11:39:08.655Z,22.65
2018-09-14T11:41:37.206Z,22.79
2018-09-14T11:44:05.727Z,23.02
2018-09-14T11:46:34.456Z,23.87
2018-09-14T11:49:03.055Z,24.12
2018-09-14T11:51:31.477Z,23.71
2018-09-14T11:54:00.123Z,23.33
2018-09-14T11:56:28.750Z,23.56
2018-09-14T11:58:57.188Z,23.08
2018-09-14T12:01:25.784Z,22.79
2018-09-14T12:03:54.322Z,22.90
2018-09-14T12:06:22.798Z,23.15
2018-09-14T12:08:51.224Z,23.04
2018-09-14T12:11:20.038Z,22.76
2018-09-14T12:13:48.585Z,22.74
2018-09-14T12:16:16.959Z,22.71
2018-09-14T12:18:45.822Z,22.64
2018-09-14T12:21:14.326Z,22.60
2018-09-14T12:23:42.730Z,22.43
2018-09-14T12:26:11.230Z,23.11
2018-09-14T12:28:39.706Z,23.25
2018-09-14T12:31:08.119Z,23.06
2018-09-14T12:33:36.600Z,22.82
2018-09-14T12:36:05.628Z,22.67
2018-09-14T12:38:34.031Z,22.90
2018-09-14T12:41:02.509Z,22.91
2018-09-14T12:43:30.978Z,23.04
2018-09-14T12:45:59.506Z,23.32
2018-09-14T12:48:28.143Z,23.45
2018-09-14T12:50:56.571Z,23.42
2018-09-14T12:53:24.998Z,23.08
2018-09-14T12:55:53.586Z,23.04
2018-09-14T12:58:21.999Z,23.13
2018-09-14T13:00:50.447Z,23.58
2018-09-14T13:03:19.115Z,23.69
2018-09-14T13:05:47.610Z,23.64
2018-09-14T13:08:16.043Z,23.75
2018-09-14T13:10:44.506Z,23.39
2018-09-14T13:13:12.972Z,23.25
2018-09-14T13:15:41.414Z,23.65
2018-09-14T13:18:09.843Z,23.75
2018-09-14T13:20:38.328Z,23.65
2018-09-14T13:23:06.810Z,23.59
2018-09-14T13:25:35.407Z,23.22
2018-09-14T13:28:04.649Z,23.56
2018-09-14T13:30:33.162Z,23.40
2018-09-14T13:33:01.755Z,23.47
2018-09-14T13:35:30.208Z,23.27
2018-09-14T13:37:58.698Z,23.14
2018-09-14T13:40:27.550Z,23.10
2018-09-14T13:42:56.067Z,22.94
2018-09-14T13:45:24.582Z,23.00
2018-09-14T13:47:53.232Z,22.75
2018-09-14T13:50:21.651Z,22.91
2018-09-14T13:52:50.526Z,23.38
2018-09-14T13:55:19.567Z,23.62
2018-09-14T13:57:48.083Z,23.20
2018-09-14T14:00:16.674Z,23.34
2018-09-14T14:02:45.519Z,23.07
2018-09-14T14:05:13.999Z,23.77
2018-09-14T14:07:42.452Z,24.06
2018-09-14T14:10:11.270Z,23.70
2018-09-14T14:12:39.775Z,23.15
2018-09-14T14:15:08.196Z,23.70
2018-09-14T14:17:37.062Z,23.55
2018-09-14T14:20:05.536Z,23.45
2018-09-14T14:22:34.027Z,23.26
2018-09-14T14:25:02.651Z,23.18
2018-09-14T14:27:31.115Z,23.41
2018-09-14T14:29:59.651Z,23.86
2018-09-14T14:32:28.138Z,23.59
2018-09-14T14:34:56.686Z,23.55
2018-09-14T14:37:25.209Z,23.23
2018-09-14T14:39:53.671Z,23.09
2018-09-14T14:42:22.188Z,23.22
2018-09-14T14:44:50.680Z,23.27
2018-09-14T14:47:19.190Z,23.19
2018-09-14T14:49:47.648Z,23.64
2018-09-14T14:52:16.076Z,23.66
2018-09-14T14:54:44.923Z,23.62
2018-09-14T14:57:13.347Z,23.59
2018-09-14T14:59:41.842Z,23.88
2018-09-14T15:02:10.391Z,24.07
2018-09-14T15:04:38.783Z,24.01
2018-09-14T15:07:07.386Z,23.56
2018-09-14T15:09:35.887Z,23.70
2018-09-14T15:12:04.398Z,23.77
2018-09-14T15:14:32.902Z,23.49
2018-09-14T15:17:01.699Z,23.46
2018-09-14T15:19:30.296Z,23.23
2018-09-14T15:21:58.830Z,23.27
2018-09-14T15:24:27.366Z,23.40
2018-09-14T15:26:55.988Z,23.24
2018-09-14T15:29:24.426Z,23.37
2018-09-14T15:31:53.063Z,23.27
2018-09-14T15:34:21.494Z,23.50
2018-09-14T15:36:49.976Z,23.37
2018-09-14T15:39:18.522Z,23.40
2018-09-14T15:41:47.040Z,23.32
2018-09-14T15:44:15.470Z,23.60
2018-09-14T15:46:43.990Z,23.69
2018-09-14T15:49:12.538Z,23.94
2018-09-14T15:51:40.963Z,23.54
2018-09-14T15:54:09.678Z,23.45
2018-09-14T15:56:38.077Z,23.22
2018-09-14T15:59:06.535Z,23.82
2018-09-14T16:01:35.072Z,23.45
2018-09-14T16:04:03.688Z,23.27
2018-09-14T16:06:32.230Z,23.58
2018-09-14T16:09:01.022Z,23.43
2018-09-14T16:11:29.487Z,23.16
2018-09-14T16:13:57.981Z,23.13
2018-09-14T16:16:26.499Z,23.05
2018-09-14T16:18:55.042Z,23.45
2018-09-14T16:21:23.466Z,23.34
2018-09-14T16:23:52.087Z,23.39
2018-09-14T16:26:20.546Z,23.43
2018-09-14T16:28:49.000Z,22.78
2018-09-14T16:31:17.531Z,22.65
2018-09-14T16:33:46.046Z,22.67
2018-09-14T16:36:14.650Z,22.60
2018-09-14T16:38:43.099Z,22.76
2018-09-14T16:41:11.571Z,22.47
2018-09-14T16:43:40.028Z,22.29
2018-09-14T16:46:08.536Z,22.43
2018-09-14T16:48:37.039Z,22.32
2018-09-14T16:51:05.530Z,22.29
2018-09-14T16:53:34.016Z,22.30
2018-09-14T16:56:02.475Z,22.18
2018-09-14T16:58:30.945Z,22.08
2018-09-14T17:00:59.562Z,22.08
2018-09-14T17:03:28.599Z,21.95
2018-09-14T17:05:57.312Z,22.00
2018-09-14T17:08:25.871Z,22.07
2018-09-14T17:10:54.496Z,21.74
2018-09-14T17:13:22.910Z,21.88
2018-09-14T17:15:51.835Z,21.83
2018-09-14T17:18:20.255Z,21.89
2018-09-14T17:20:48.750Z,21.62
2018-09-14T17:23:17.315Z,21.74
2018-09-14T17:25:45.855Z,21.69
2018-09-14T17:28:14.327Z,21.74
2018-09-14T17:30:42.779Z,21.58
2018-09-14T17:33:11.222Z,21.46
2018-09-14T17:35:39.769Z,21.47
2018-09-14T17:38:08.588Z,21.38
2018-09-14T17:40:37.026Z,21.40
2018-09-14T17:43:05.533Z,21.78
2018-09-14T17:45:33.951Z,21.49
2018-09-14T17:48:02.496Z,21.40
2018-09-14T17:50:31.001Z,21.38
2018-09-14T17:52:59.576Z,21.07
2018-09-14T17:55:28.088Z,21.10
2018-09-14T17:57:56.607Z,20.96
2018-09-14T18:00:25.231Z,21.15
2018-09-14T18:02:53.777Z,20.99
2018-09-14T18:05:22.442Z,21.34
2018-09-14T18:07:50.903Z,21.03
2018-09-14T18:10:19.323Z,21.12
2018-09-14T18:12:47.968Z,20.89
2018-09-14T18:15:16.455Z,21.09
2018-09-14T18:17:44.917Z,20.86
2018-09-14T18:20:13.446Z,20.78
2018-09-14T18:22:42.096Z,20.65
2018-09-14T18:25:10.661Z,20.72
2018-09-14T18:27:39.225Z,20.72
2018-09-14T18:30:08.475Z,20.40
2018-09-14T18:32:37.288Z,20.46
2018-09-14T18:35:06.287Z,20.45
2018-09-14T18:37:35.202Z,20.37
2018-09-14T18:40:03.814Z,20.16
2018-09-14T18:42:32.342Z,20.08
2018-09-14T18:45:00.871Z,20.03
2018-09-14T18:47:29.376Z,20.33
2018-09-14T18:49:57.970Z,20.43
2018-09-14T18:52:26.963Z,20.17
2018-09-14T18:54:55.526Z,19.70
2018-09-14T18:57:24.055Z,19.65
2018-09-14T18:59:52.624Z,19.58
2018-09-14T19:02:21.141Z,19.58
2018-09-14T19:04:49.617Z,19.46
2018-09-14T19:07:18.285Z,19.46
2018-09-14T19:09:47.112Z,19.42
2018-09-14T19:12:15.616Z,19.31
2018-09-14T19:14:44.555Z,19.30
2018-09-14T19:17:13.593Z,19.20
2018-09-14T19:19:42.653Z,18.94
2018-09-14T19:22:11.976Z,18.99
2018-09-14T19:24:41.272Z,18.83
2018-09-14T19:27:10.872Z,18.79
2018-09-14T19:29:39.918Z,18.55
2018-09-14T19:32:09.001Z,18.45
2018-09-14T19:34:37.990Z,18.25
2018-09-14T19:37:07.326Z,18.17
2018-09-14T19:39:36.304Z,18.17
2018-09-14T19:42:05.546Z,18.17
2018-09-14T19:44:36.215Z,18.21
2018-09-14T19:47:05.337Z,18.24
2018-09-14T19:49:34.373Z,18.09
2018-09-14T19:52:03.438Z,18.10
2018-09-14T19:54:32.647Z,17.90
2018-09-14T19:57:01.883Z,17.70
2018-09-14T19:59:31.176Z,17.66
2018-09-14T20:02:00.027Z,17.69
2018-09-14T20:04:29.426Z,17.47
2018-09-14T20:06:58.557Z,17.53
2018-09-14T20:09:27.503Z,17.35
2018-09-14T20:11:56.526Z,17.27
2018-09-14T20:14:25.471Z,17.40
2018-09-14T20:16:54.412Z,17.53
2018-09-14T20:19:23.277Z,17.50
2018-09-14T20:21:52.041Z,17.54
2018-09-14T20:24:21.761Z,17.40
2018-09-14T20:26:50.257Z,17.30
2018-09-14T20:29:18.833Z,17.09
2018-09-14T20:31:47.483Z,17.09
2018-09-14T20:34:16.128Z,17.27
2018-09-14T20:36:44.723Z,17.50
2018-09-14T20:39:13.755Z,17.73
2018-09-14T20:41:42.275Z,17.80
2018-09-14T20:44:10.992Z,17.68
2018-09-14T20:46:40.528Z,17.91
2018-09-14T20:49:08.951Z,17.82
2018-09-14T20:51:37.707Z,18.23
2018-09-14T20:54:06.349Z,18.01
2018-09-14T20:56:34.933Z,17.72
2018-09-14T20:59:03.747Z,18.12
2018-09-14T21:01:32.173Z,17.81
2018-09-14T21:04:00.606Z,17.48
2018-09-14T21:06:29.108Z,17.43
2018-09-14T21:08:57.586Z,17.29
2018-09-14T21:11:26.041Z,17.31
2018-09-14T21:13:54.556Z,17.36
2018-09-14T21:16:22.987Z,17.06
2018-09-14T21:18:51.415Z,17.09
2018-09-14T21:21:20.043Z,17.11
2018-09-14T21:23:48.538Z,17.18
2018-09-14T21:26:17.061Z,17.18
2018-09-14T21:28:45.526Z,17.25
2018-09-14T21:31:13.986Z,17.25
2018-09-14T21:33:42.385Z,17.25
2018-09-14T21:36:11.104Z,17.08
2018-09-14T21:38:39.494Z,17.71
2018-09-14T21:41:07.910Z,17.47
2018-09-14T21:43:36.533Z,17.46
2018-09-14T21:46:05.063Z,17.13
2018-09-14T21:48:33.563Z,17.23
2018-09-14T21:51:02.006Z,17.32
2018-09-14T21:53:30.563Z,17.30
2018-09-14T21:55:59.083Z,17.05
2018-09-14T21:58:27.550Z,17.18
2018-09-14T22:01:01.275Z,16.95
2018-09-14T22:03:29.966Z,16.80
2018-09-14T22:05:58.459Z,16.69
2018-09-14T22:08:26.919Z,16.58
2018-09-14T22:10:55.446Z,16.48
2018-09-14T22:13:23.948Z,16.26
2018-09-14T22:15:52.436Z,16.57
2018-09-14T22:18:21.178Z,16.40
2018-09-14T22:20:49.602Z,16.19
2018-09-14T22:23:18.110Z,16.04
2018-09-14T22:25:46.660Z,16.07
2018-09-14T22:28:15.107Z,15.74
2018-09-14T22:30:43.523Z,15.68
2018-09-14T22:33:12.018Z,15.72
2018-09-14T22:35:40.462Z,15.67
2018-09-14T22:38:09.080Z,15.64
2018-09-14T22:40:37.858Z,15.68
2018-09-14T22:43:06.286Z,15.56
2018-09-14T22:45:34.746Z,15.67
2018-09-14T22:48:03.187Z,15.33
2018-09-14T22:50:31.606Z,15.29
2018-09-14T22:53:00.038Z,14.96
2018-09-14T22:55:28.611Z,14.94
2018-09-14T22:57:57.127Z,14.84
2018-09-14T23:01:31.892Z,15.14
2018-09-14T23:04:00.342Z,14.85
2018-09-14T23:06:28.846Z,14.57
2018-09-14T23:08:57.314Z,14.53
2018-09-14T23:11:25.735Z,14.46
2018-09-14T23:13:54.243Z,14.22
2018-09-14T23:18:51.143Z,14.31
2018-09-14T23:21:19.699Z,14.23
2018-09-14T23:23:48.391Z,14.12
2018-09-14T23:26:20.391Z,14.18
2018-09-14T23:28:48.907Z,14.17
2018-09-14T23:31:17.382Z,13.98
2018-09-14T23:33:45.794Z,13.97
2018-09-14T23:36:14.349Z,13.94
2018-09-14T23:38:42.851Z,13.95
2018-09-14T23:41:11.244Z,14.05
2018-09-14T23:43:39.758Z,14.07
2018-09-14T23:46:08.262Z,14.21
2018-09-14T23:48:36.747Z,14.29
2018-09-14T23:51:05.235Z,14.13
2018-09-14T23:53:33.686Z,13.90
2018-09-14T23:56:02.232Z,13.78
2018-09-14T23:58:31.038Z,13.82
